Time;durP1;ratioP1;P1;durP2;ratioP2;P2;SDS_P1;SDS_P2;PMS_P1;PMS_P2;Temp;Humidity;BMP_temperature;BMP_pressure;BME280_temperature;BME280_humidity;BME280_pressure;Samples;Min_cycle;Max_cycle;Signal;HPM_P1;HPM_P2
2023/08/20 00:02:20;;;;;;;4.10;3.80;;;26.40;75.80;;;;;;946431;149;27317;-73
2023/08/20 00:04:46;;;;;;;4.30;3.85;;;26.40;76.10;;;;;;946416;149;27329;-74
2023/08/20 00:07:13;;;;;;;5.03;4.30;;;26.40;76.40;;;;;;946095;149;27380;-73
2023/08/20 00:09:40;;;;;;;6.15;3.90;;;26.40;76.70;;;;;;966846;145;27366;-74
2023/08/20 00:12:07;;;;;;;6.58;4.03;;;26.40;77.10;;;;;;963314;146;27308;-73
2023/08/20 00:15:06;;;;;;;3.90;3.60;;;26.40;77.40;;;;;;954193;147;27233;-73
2023/08/20 00:17:33;;;;;;;8.28;4.05;;;26.40;77.70;;;;;;963616;146;27249;-73
2023/08/20 00:20:00;;;;;;;4.42;3.80;;;26.40;77.60;;;;;;963703;146;27343;-76
2023/08/20 00:22:26;;;;;;;4.95;3.58;;;26.40;78.10;;;;;;945337;149;27460;-73
2023/08/20 00:24:53;;;;;;;4.22;3.83;;;26.40;78.50;;;;;;946525;149;27330;-73
2023/08/20 00:27:19;;;;;;;4.35;3.87;;;26.30;78.70;;;;;;963932;146;27272;-73
2023/08/20 00:29:46;;;;;;;5.87;3.95;;;26.30;79.20;;;;;;962535;146;27320;-76
2023/08/20 00:32:13;;;;;;;6.53;3.80;;;26.30;79.50;;;;;;963827;146;27331;-73
2023/08/20 00:34:40;;;;;;;4.40;4.05;;;26.20;80.00;;;;;;963667;146;27309;-73
2023/08/20 00:37:06;;;;;;;4.17;3.70;;;26.20;80.50;;;;;;963631;146;27354;-73
2023/08/20 00:39:32;;;;;;;4.58;3.90;;;26.20;80.90;;;;;;963317;146;27316;-74
2023/08/20 00:41:59;;;;;;;5.95;3.83;;;26.10;81.40;;;;;;963937;145;27343;-73
2023/08/20 00:44:25;;;;;;;4.20;3.83;;;26.10;82.10;;;;;;963129;146;27887;-73
2023/08/20 00:46:52;;;;;;;4.47;4.03;;;26.10;82.70;;;;;;963099;146;27429;-73
2023/08/20 00:49:19;;;;;;;3.75;3.45;;;26.00;83.40;;;;;;963936;146;27381;-74
2023/08/20 00:51:45;;;;;;;4.50;3.90;;;26.00;83.90;;;;;;943567;149;27369;-76
2023/08/20 00:54:12;;;;;;;3.85;3.55;;;26.10;84.40;;;;;;963929;146;27408;-73
2023/08/20 00:56:38;;;;;;;4.37;3.98;;;26.00;84.70;;;;;;963908;146;28364;-73
2023/08/20 00:59:05;;;;;;;3.20;3.00;;;26.00;85.10;;;;;;963866;146;27342;-73
2023/08/20 01:01:32;;;;;;;4.08;3.75;;;26.10;85.70;;;;;;963423;145;27421;-74
2023/08/20 01:03:58;;;;;;;5.85;3.30;;;26.00;86.10;;;;;;963799;146;27342;-75
2023/08/20 01:06:43;;;;;;;3.90;3.60;;;26.00;86.60;;;;;;964143;146;27378;-73
2023/08/20 01:09:12;;;;;;;3.87;3.58;;;26.00;87.00;;;;;;963699;147;27348;-74
2023/08/20 01:11:39;;;;;;;3.90;3.60;;;26.00;87.20;;;;;;961106;146;27346;-75
2023/08/20 01:14:05;;;;;;;3.75;3.45;;;26.00;87.40;;;;;;963549;146;27335;-74
2023/08/20 01:16:32;;;;;;;4.47;3.58;;;26.00;88.20;;;;;;961768;146;27439;-75
2023/08/20 01:18:58;;;;;;;4.12;3.83;;;26.00;88.90;;;;;;963437;146;27308;-75
2023/08/20 01:21:31;;;;;;;3.70;3.40;;;25.90;89.50;;;;;;964525;146;27407;-75
2023/08/20 01:24:00;;;;;;;4.65;3.65;;;25.90;89.60;;;;;;959515;146;27436;-74
2023/08/20 01:26:48;;;;;;;4.20;3.77;;;25.90;89.90;;;;;;963200;146;27329;-75
2023/08/20 01:29:15;;;;;;;4.37;3.98;;;25.90;90.10;;;;;;962016;146;27303;-75
2023/08/20 01:31:41;;;;;;;4.97;3.75;;;25.90;90.20;;;;;;963705;146;27345;-75
2023/08/20 01:34:08;;;;;;;4.20;3.80;;;25.80;90.40;;;;;;964238;146;27291;-76
2023/08/20 01:36:34;;;;;;;4.35;3.98;;;25.80;90.50;;;;;;963875;146;27339;-75
2023/08/20 01:39:01;;;;;;;4.60;4.17;;;25.70;90.80;;;;;;964187;146;27263;-75
2023/08/20 01:41:28;;;;;;;7.83;4.15;;;25.70;90.90;;;;;;963891;146;27299;-75
2023/08/20 01:43:54;;;;;;;5.35;3.98;;;25.60;91.10;;;;;;948768;148;27959;-76
2023/08/20 01:46:21;;;;;;;4.62;4.10;;;25.60;91.40;;;;;;963864;146;27435;-75
2023/08/20 01:48:47;;;;;;;4.12;3.72;;;25.50;91.70;;;;;;964031;146;27316;-75
2023/08/20 01:51:15;;;;;;;4.70;4.30;;;25.40;91.90;;;;;;963359;146;27251;-75
2023/08/20 01:53:41;;;;;;;5.17;3.95;;;25.40;92.20;;;;;;963583;146;27278;-75
2023/08/20 01:56:14;;;;;;;5.10;4.33;;;25.30;92.40;;;;;;964128;146;27291;-76
2023/08/20 01:58:40;;;;;;;5.37;4.47;;;25.30;92.90;;;;;;963608;146;27450;-75
2023/08/20 02:01:07;;;;;;;5.53;4.40;;;25.20;93.20;;;;;;956085;146;27305;-75
2023/08/20 02:03:33;;;;;;;4.70;4.33;;;25.20;93.40;;;;;;950460;147;27836;-75
2023/08/20 02:06:00;;;;;;;4.92;4.42;;;25.10;93.80;;;;;;950572;147;27405;-75
2023/08/20 02:08:26;;;;;;;4.40;4.08;;;25.10;94.10;;;;;;950186;147;27901;-75
2023/08/20 02:11:02;;;;;;;4.60;4.20;;;25.00;94.40;;;;;;950393;147;27355;-75
2023/08/20 02:13:28;;;;;;;5.22;4.33;;;25.00;94.80;;;;;;949979;147;27707;-75
2023/08/20 02:16:01;;;;;;;4.47;4.12;;;24.90;94.90;;;;;;950940;147;27320;-75
2023/08/20 02:18:28;;;;;;;4.47;4.00;;;24.90;95.20;;;;;;950610;147;27413;-76
2023/08/20 02:20:54;;;;;;;4.58;4.17;;;24.80;95.50;;;;;;951184;147;27429;-77
2023/08/20 02:23:21;;;;;;;4.67;4.25;;;24.80;95.80;;;;;;951108;147;27406;-76
2023/08/20 02:25:48;;;;;;;4.72;4.33;;;24.70;96.00;;;;;;950135;147;27421;-76
2023/08/20 02:28:14;;;;;;;4.62;4.22;;;24.70;96.30;;;;;;950448;147;27278;-77
2023/08/20 02:30:43;;;;;;;5.28;4.33;;;24.70;96.70;;;;;;951510;147;27317;-76
2023/08/20 02:33:10;;;;;;;4.97;4.53;;;24.60;96.90;;;;;;950525;147;27386;-77
2023/08/20 02:35:39;;;;;;;5.05;4.55;;;24.60;97.10;;;;;;950823;147;27282;-76
2023/08/20 02:38:06;;;;;;;4.33;4.03;;;24.50;97.50;;;;;;950918;147;27807;-76
2023/08/20 02:40:32;;;;;;;4.92;4.42;;;24.50;97.70;;;;;;951604;147;27360;-76
2023/08/20 02:42:59;;;;;;;7.33;4.40;;;24.50;97.90;;;;;;934313;149;27326;-77
2023/08/20 02:45:25;;;;;;;5.45;4.35;;;24.40;98.20;;;;;;926704;150;27319;-76
2023/08/20 02:47:52;;;;;;;5.20;4.28;;;24.40;98.40;;;;;;950596;147;27286;-77
2023/08/20 02:50:19;;;;;;;5.05;4.65;;;24.30;98.60;;;;;;949809;147;27318;-76
2023/08/20 02:52:45;;;;;;;4.90;4.45;;;24.30;98.80;;;;;;949844;147;27308;-77
2023/08/20 02:55:12;;;;;;;5.25;4.78;;;24.30;99.10;;;;;;950418;147;27309;-77
2023/08/20 02:57:38;;;;;;;5.15;4.75;;;24.20;99.30;;;;;;950393;147;27290;-77
2023/08/20 03:00:06;;;;;;;5.33;4.78;;;24.20;99.40;;;;;;950135;147;27365;-77
2023/08/20 03:02:32;;;;;;;5.75;5.20;;;24.10;99.70;;;;;;968788;145;28347;-77
2023/08/20 03:04:58;;;;;;;5.97;5.33;;;24.10;99.90;;;;;;950982;148;27337;-76
2023/08/20 03:07:25;;;;;;;4.97;4.47;;;24.10;99.90;;;;;;968576;145;27263;-76
2023/08/20 03:09:51;;;;;;;5.28;4.78;;;24.00;99.90;;;;;;968965;145;27431;-76
2023/08/20 03:12:18;;;;;;;4.72;4.30;;;24.00;99.90;;;;;;968000;145;27342;-77
2023/08/20 03:14:45;;;;;;;5.40;5.00;;;24.00;99.90;;;;;;969062;145;27324;-77
2023/08/20 03:17:11;;;;;;;5.12;4.70;;;23.90;99.90;;;;;;968999;145;27303;-77
2023/08/20 03:19:38;;;;;;;5.03;4.42;;;23.90;99.90;;;;;;967852;145;27419;-76
2023/08/20 03:22:04;;;;;;;6.30;4.55;;;23.80;99.90;;;;;;964664;145;27408;-76
2023/08/20 03:24:31;;;;;;;5.20;4.78;;;23.80;99.90;;;;;;968061;145;27367;-76
2023/08/20 03:26:57;;;;;;;5.37;4.87;;;23.80;99.90;;;;;;968698;145;27436;-77
2023/08/20 03:29:24;;;;;;;5.35;4.95;;;23.70;99.90;;;;;;968602;145;27303;-76
2023/08/20 03:31:51;;;;;;;5.15;4.75;;;23.70;99.90;;;;;;968056;145;27350;-75
2023/08/20 03:34:17;;;;;;;5.20;4.70;;;23.70;99.90;;;;;;968265;145;28032;-75
2023/08/20 03:36:44;;;;;;;5.45;4.83;;;23.70;99.90;;;;;;969306;145;27317;-75
2023/08/20 03:39:10;;;;;;;6.60;4.78;;;23.60;99.90;;;;;;968808;145;27287;-75
2023/08/20 03:41:37;;;;;;;5.28;4.87;;;23.60;99.90;;;;;;968885;145;27378;-75
2023/08/20 03:44:04;;;;;;;6.00;5.42;;;23.60;99.90;;;;;;970445;145;27417;-75
2023/08/20 03:46:30;;;;;;;5.87;5.37;;;23.60;99.90;;;;;;948464;148;27423;-75
2023/08/20 03:48:57;;;;;;;4.85;4.35;;;23.60;99.90;;;;;;948850;148;27426;-76
2023/08/20 03:51:23;;;;;;;7.62;5.67;;;23.50;99.90;;;;;;948086;148;27262;-75
2023/08/20 03:53:50;;;;;;;4.97;4.53;;;23.50;99.90;;;;;;947675;148;27784;-75
2023/08/20 03:56:17;;;;;;;5.25;4.80;;;23.50;99.90;;;;;;948673;148;27352;-75
2023/08/20 03:58:43;;;;;;;5.75;5.08;;;23.50;99.90;;;;;;968433;145;27317;-75
2023/08/20 04:01:10;;;;;;;5.53;5.12;;;23.40;99.90;;;;;;967151;145;27408;-75
2023/08/20 04:03:36;;;;;;;5.30;4.80;;;23.40;99.90;;;;;;950680;147;27394;-75
2023/08/20 04:06:03;;;;;;;5.70;5.10;;;23.30;99.90;;;;;;950473;147;27347;-75
2023/08/20 04:08:29;;;;;;;7.67;5.30;;;23.30;99.90;;;;;;951023;147;27454;-75
2023/08/20 04:10:56;;;;;;;5.20;4.70;;;23.20;99.90;;;;;;950612;147;27332;-75
2023/08/20 04:13:23;;;;;;;5.42;4.92;;;23.20;99.90;;;;;;951400;147;27836;-75
2023/08/20 04:15:49;;;;;;;5.72;5.20;;;23.10;99.90;;;;;;950982;147;27475;-75
2023/08/20 04:18:16;;;;;;;5.17;4.67;;;23.10;99.90;;;;;;950486;147;27767;-75
2023/08/20 04:20:42;;;;;;;5.33;4.92;;;23.10;99.90;;;;;;951204;147;27858;-75
2023/08/20 04:23:09;;;;;;;5.95;5.00;;;23.00;99.90;;;;;;950901;147;27237;-75
2023/08/20 04:25:36;;;;;;;4.92;4.42;;;22.90;99.90;;;;;;951396;147;27290;-76
2023/08/20 04:28:02;;;;;;;5.50;5.00;;;22.90;99.90;;;;;;950871;147;27449;-75
2023/08/20 04:30:29;;;;;;;6.53;5.85;;;22.90;99.90;;;;;;950834;147;27385;-75
2023/08/20 04:32:55;;;;;;;5.55;5.00;;;22.90;99.90;;;;;;950815;147;27391;-75
2023/08/20 04:35:22;;;;;;;5.60;5.10;;;22.80;99.90;;;;;;951956;147;27292;-76
2023/08/20 04:37:49;;;;;;;5.80;5.30;;;22.80;99.90;;;;;;942658;148;27348;-75
2023/08/20 04:40:15;;;;;;;5.78;5.28;;;22.80;99.90;;;;;;942719;148;27397;-75
2023/08/20 04:42:42;;;;;;;5.72;5.25;;;22.80;99.90;;;;;;943575;148;28199;-73
2023/08/20 04:45:08;;;;;;;6.03;5.22;;;22.80;99.90;;;;;;941960;148;27530;-74
2023/08/20 04:47:35;;;;;;;5.37;4.87;;;22.80;99.90;;;;;;942711;148;27378;-75
2023/08/20 04:50:02;;;;;;;6.30;5.70;;;22.80;99.90;;;;;;942412;148;27836;-73
2023/08/20 04:52:28;;;;;;;5.15;4.75;;;22.80;99.90;;;;;;942378;148;27363;-74
2023/08/20 04:54:55;;;;;;;5.60;5.10;;;22.90;99.90;;;;;;933750;150;27420;-73
2023/08/20 04:57:21;;;;;;;6.58;5.17;;;22.90;99.90;;;;;;952006;147;27281;-73
2023/08/20 04:59:48;;;;;;;5.72;5.22;;;23.00;99.90;;;;;;952289;147;27341;-76
2023/08/20 05:02:15;;;;;;;6.25;5.35;;;23.10;99.90;;;;;;950505;147;28312;-73
2023/08/20 05:04:41;;;;;;;5.90;5.35;;;23.10;99.90;;;;;;951032;147;27294;-73
2023/08/20 05:07:08;;;;;;;6.10;5.25;;;23.20;99.90;;;;;;951604;147;27287;-73
2023/08/20 05:09:34;;;;;;;5.95;5.35;;;23.40;99.90;;;;;;950804;147;27847;-75
2023/08/20 05:12:01;;;;;;;5.95;5.50;;;23.60;99.90;;;;;;951212;147;27467;-73
2023/08/20 05:14:27;;;;;;;5.70;5.05;;;23.90;99.90;;;;;;951360;147;27238;-73
2023/08/20 05:16:54;;;;;;;7.60;5.35;;;24.20;99.90;;;;;;951355;147;27315;-73
2023/08/20 05:19:21;;;;;;;5.12;4.72;;;24.50;99.90;;;;;;951387;147;27407;-75
2023/08/20 05:21:47;;;;;;;6.97;6.37;;;24.90;99.90;;;;;;950667;147;27329;-74
2023/08/20 05:24:14;;;;;;;6.95;6.35;;;25.40;99.90;;;;;;949887;147;27275;-73
2023/08/20 05:26:40;;;;;;;5.78;5.28;;;25.90;99.90;;;;;;951310;147;28020;-75
2023/08/20 05:29:07;;;;;;;6.03;5.53;;;26.40;99.90;;;;;;951316;147;27398;-74
2023/08/20 05:31:34;;;;;;;5.08;4.58;;;27.00;99.90;;;;;;950399;147;27289;-76
2023/08/20 05:34:00;;;;;;;4.67;4.10;;;27.40;99.90;;;;;;950681;147;27411;-75
2023/08/20 05:36:27;;;;;;;4.90;4.30;;;28.00;99.90;;;;;;950328;147;27400;-74
2023/08/20 05:38:53;;;;;;;5.35;4.83;;;28.60;99.90;;;;;;950262;147;27312;-74
2023/08/20 05:41:20;;;;;;;5.42;4.92;;;29.20;99.90;;;;;;950145;147;27355;-74
2023/08/20 05:43:47;;;;;;;4.62;4.20;;;29.70;99.90;;;;;;950696;147;27349;-75
2023/08/20 05:46:13;;;;;;;4.53;4.12;;;30.30;98.90;;;;;;950748;147;26245;-74
2023/08/20 05:48:40;;;;;;;4.10;3.80;;;30.90;96.90;;;;;;950283;147;27377;-74
2023/08/20 05:51:06;;;;;;;5.35;4.37;;;31.30;94.60;;;;;;950892;147;27234;-75
2023/08/20 05:53:33;;;;;;;4.40;3.98;;;31.80;92.10;;;;;;950328;147;27346;-74
2023/08/20 05:56:00;;;;;;;4.22;3.87;;;32.10;89.00;;;;;;950828;147;27351;-75
2023/08/20 05:58:26;;;;;;;4.70;4.30;;;32.40;84.60;;;;;;950173;147;27419;-74
2023/08/20 06:00:53;;;;;;;4.17;3.87;;;32.60;83.50;;;;;;951294;147;27345;-76
2023/08/20 06:03:19;;;;;;;5.25;4.03;;;32.90;82.50;;;;;;951478;147;27396;-75
2023/08/20 06:05:46;;;;;;;4.45;4.05;;;33.10;81.50;;;;;;951021;147;27434;-72
2023/08/20 06:08:12;;;;;;;4.00;3.72;;;33.50;80.80;;;;;;950594;147;27315;-73
2023/08/20 06:10:39;;;;;;;4.58;3.77;;;33.80;79.90;;;;;;950710;147;27379;-73
2023/08/20 06:13:06;;;;;;;4.12;3.77;;;34.20;78.20;;;;;;951343;147;26230;-74
2023/08/20 06:15:32;;;;;;;4.10;3.70;;;34.70;76.30;;;;;;950318;147;27444;-77
2023/08/20 06:17:59;;;;;;;3.98;3.67;;;35.10;74.30;;;;;;951438;147;26341;-76
2023/08/20 06:20:25;;;;;;;3.72;3.42;;;35.50;72.60;;;;;;950977;147;26236;-74
2023/08/20 06:22:52;;;;;;;3.77;3.52;;;35.90;71.10;;;;;;951668;147;26246;-75
2023/08/20 06:25:19;;;;;;;4.00;3.70;;;36.30;69.40;;;;;;952118;147;26262;-76
2023/08/20 06:27:45;;;;;;;3.60;3.30;;;36.60;68.10;;;;;;950534;147;26264;-74
2023/08/20 06:30:12;;;;;;;3.87;3.58;;;36.90;66.70;;;;;;951234;147;27339;-72
2023/08/20 06:32:38;;;;;;;5.10;3.90;;;37.30;65.70;;;;;;950303;147;26761;-73
2023/08/20 06:35:05;;;;;;;4.60;3.65;;;37.60;64.50;;;;;;950716;147;26166;-74
2023/08/20 06:37:32;;;;;;;4.45;3.47;;;38.10;63.50;;;;;;951277;147;26354;-72
2023/08/20 06:39:58;;;;;;;4.67;3.60;;;38.40;62.10;;;;;;950858;147;26261;-71
2023/08/20 06:42:25;;;;;;;4.22;3.58;;;38.70;60.40;;;;;;950098;147;26222;-71
2023/08/20 06:44:51;;;;;;;5.08;3.47;;;39.00;59.50;;;;;;950357;147;26221;-72
2023/08/20 06:47:18;;;;;;;3.85;3.45;;;39.20;58.80;;;;;;950912;147;26226;-75
2023/08/20 06:49:45;;;;;;;5.47;4.12;;;39.50;58.30;;;;;;951430;147;26273;-72
2023/08/20 06:52:11;;;;;;;4.10;3.52;;;39.80;57.50;;;;;;951256;147;26276;-73
2023/08/20 06:54:38;;;;;;;3.90;3.47;;;40.00;56.70;;;;;;951065;147;26214;-72
2023/08/20 06:57:05;;;;;;;3.98;3.15;;;40.30;56.30;;;;;;950658;147;26202;-73
2023/08/20 06:59:31;;;;;;;3.75;2.92;;;40.60;55.70;;;;;;950888;147;26253;-75
2023/08/20 07:01:57;;;;;;;3.80;3.35;;;40.90;55.10;;;;;;950277;147;26272;-74
2023/08/20 07:04:24;;;;;;;4.85;3.58;;;41.20;54.20;;;;;;951264;147;26253;-75
2023/08/20 07:06:51;;;;;;;3.87;3.20;;;41.40;53.30;;;;;;950560;147;26182;-74
2023/08/20 07:09:17;;;;;;;3.67;3.25;;;41.50;52.70;;;;;;950539;147;27184;-74
2023/08/20 07:11:44;;;;;;;4.10;3.72;;;41.70;52.30;;;;;;951374;147;26260;-74
2023/08/20 07:14:10;;;;;;;3.40;3.10;;;41.80;51.90;;;;;;950586;147;26244;-74
2023/08/20 07:16:37;;;;;;;4.45;3.30;;;42.00;51.70;;;;;;950078;148;26309;-74
2023/08/20 07:19:04;;;;;;;3.50;3.20;;;42.20;51.20;;;;;;926522;150;26328;-75
2023/08/20 07:21:30;;;;;;;3.52;3.22;;;42.50;50.80;;;;;;926916;151;26385;-74
2023/08/20 07:23:57;;;;;;;3.58;3.25;;;42.60;50.10;;;;;;951237;147;26306;-74
2023/08/20 07:26:23;;;;;;;4.85;3.70;;;42.80;49.70;;;;;;926657;150;26268;-74
2023/08/20 07:29:02;;;;;;;3.55;3.17;;;43.00;49.20;;;;;;934163;150;26246;-74
2023/08/20 07:31:25;;;;;;;4.08;3.15;;;43.20;48.80;;;;;;950101;147;26281;-74
2023/08/20 07:33:52;;;;;;;4.50;3.30;;;43.30;48.10;;;;;;934571;149;26222;-74
2023/08/20 07:36:18;;;;;;;4.00;3.22;;;43.40;47.60;;;;;;950556;147;26310;-74
2023/08/20 07:38:45;;;;;;;4.30;3.35;;;43.60;47.60;;;;;;950088;147;26337;-75
2023/08/20 07:41:12;;;;;;;3.27;2.98;;;43.70;47.20;;;;;;926582;150;26283;-74
2023/08/20 07:43:38;;;;;;;3.42;3.12;;;43.80;46.70;;;;;;941307;149;26393;-74
2023/08/20 07:46:05;;;;;;;3.80;2.95;;;44.00;46.60;;;;;;942397;149;26210;-75
2023/08/20 07:48:31;;;;;;;3.27;2.60;;;44.20;45.90;;;;;;933532;150;26335;-74
2023/08/20 07:50:58;;;;;;;3.05;2.85;;;44.40;45.00;;;;;;927353;150;26300;-75
2023/08/20 07:53:25;;;;;;;4.15;3.12;;;44.30;44.70;;;;;;950230;148;26269;-75
2023/08/20 07:55:51;;;;;;;3.75;2.95;;;44.50;44.90;;;;;;950438;147;26713;-74
2023/08/20 07:58:18;;;;;;;4.40;2.85;;;44.60;44.80;;;;;;949655;148;28053;-75
2023/08/20 08:00:44;;;;;;;4.12;3.08;;;44.80;44.40;;;;;;949955;147;26234;-75
2023/08/20 08:03:11;;;;;;;3.15;2.87;;;44.90;44.00;;;;;;951070;147;26262;-74
2023/08/20 08:05:38;;;;;;;2.90;2.70;;;45.20;43.80;;;;;;951103;147;26369;-75
2023/08/20 08:08:04;;;;;;;3.10;2.83;;;45.40;43.70;;;;;;950680;147;26273;-75
2023/08/20 08:10:33;;;;;;;2.95;2.70;;;45.60;42.90;;;;;;951350;147;26206;-78
2023/08/20 08:13:00;;;;;;;3.20;2.90;;;45.80;42.60;;;;;;951042;147;26257;-75
2023/08/20 08:15:27;;;;;;;3.12;2.80;;;45.90;42.30;;;;;;949341;147;26271;-76
2023/08/20 08:17:53;;;;;;;3.50;2.77;;;46.00;41.90;;;;;;933947;150;26245;-78
2023/08/20 08:20:20;;;;;;;2.65;2.45;;;46.30;41.80;;;;;;926684;150;26304;-77
2023/08/20 08:22:46;;;;;;;3.00;2.70;;;46.40;41.40;;;;;;950420;147;26285;-76
2023/08/20 08:25:13;;;;;;;2.85;2.65;;;46.60;41.00;;;;;;950612;147;26331;-75
2023/08/20 08:27:40;;;;;;;3.58;2.50;;;46.60;40.50;;;;;;950544;147;26230;-77
2023/08/20 08:30:06;;;;;;;3.20;2.90;;;46.80;40.40;;;;;;926572;150;26342;-77
2023/08/20 08:32:33;;;;;;;3.00;2.70;;;46.80;40.20;;;;;;949736;147;26322;-77
2023/08/20 08:35:00;;;;;;;2.80;2.60;;;46.90;39.80;;;;;;946822;147;26182;-75
2023/08/20 08:37:26;;;;;;;3.08;2.62;;;47.00;39.70;;;;;;942642;149;26275;-78
2023/08/20 08:39:53;;;;;;;2.92;2.70;;;47.00;39.60;;;;;;941980;149;26711;-77
2023/08/20 08:42:19;;;;;;;2.80;2.60;;;47.20;39.50;;;;;;941690;149;26346;-77
2023/08/20 08:44:46;;;;;;;4.55;2.70;;;47.30;39.10;;;;;;941447;149;26300;-75
2023/08/20 08:47:12;;;;;;;3.15;2.90;;;47.40;38.80;;;;;;932377;149;26286;-75
2023/08/20 08:49:39;;;;;;;4.53;2.90;;;47.50;38.50;;;;;;948040;147;26275;-77
2023/08/20 08:52:06;;;;;;;3.98;2.90;;;47.60;38.20;;;;;;947923;147;26172;-75
2023/08/20 08:54:35;;;;;;;3.90;2.52;;;47.60;37.60;;;;;;950432;147;26298;-77
2023/08/20 08:57:01;;;;;;;2.92;2.50;;;47.50;37.70;;;;;;933663;149;26296;-76
2023/08/20 08:59:28;;;;;;;2.72;2.52;;;47.50;38.00;;;;;;925862;150;26296;-78
2023/08/20 09:01:56;;;;;;;4.83;2.80;;;47.50;37.60;;;;;;949808;147;26317;-76
2023/08/20 09:04:21;;;;;;;2.55;2.35;;;47.40;37.50;;;;;;949920;147;26310;-75
2023/08/20 09:06:48;;;;;;;3.33;2.40;;;47.40;37.40;;;;;;950330;147;26277;-78
2023/08/20 09:09:14;;;;;;;2.60;2.40;;;47.40;37.50;;;;;;951082;147;26338;-77
2023/08/20 09:11:41;;;;;;;3.00;2.47;;;47.50;37.50;;;;;;951007;147;26250;-78
2023/08/20 09:14:07;;;;;;;2.70;2.50;;;47.60;37.70;;;;;;950677;147;26221;-77
2023/08/20 09:16:34;;;;;;;3.25;2.72;;;47.70;37.50;;;;;;951837;147;26280;-75
2023/08/20 09:19:01;;;;;;;2.30;2.10;;;47.80;36.90;;;;;;951127;147;26334;-78
2023/08/20 09:21:30;;;;;;;2.70;2.50;;;47.90;36.80;;;;;;951418;147;26326;-73
2023/08/20 09:23:54;;;;;;;2.83;2.35;;;47.90;36.70;;;;;;933579;149;26215;-74
2023/08/20 09:26:20;;;;;;;3.95;2.52;;;48.00;36.70;;;;;;949778;146;26329;-74
2023/08/20 09:28:47;;;;;;;3.00;2.80;;;48.00;36.70;;;;;;927101;150;26267;-74
2023/08/20 09:31:13;;;;;;;3.25;2.95;;;48.10;36.30;;;;;;928144;150;26214;-73
2023/08/20 09:33:49;;;;;;;2.60;2.40;;;48.10;36.00;;;;;;927007;150;26316;-73
2023/08/20 09:36:15;;;;;;;4.17;2.33;;;48.00;35.70;;;;;;926967;150;26258;-73
2023/08/20 09:38:42;;;;;;;3.12;2.70;;;47.90;35.60;;;;;;927409;150;26267;-74
2023/08/20 09:41:09;;;;;;;2.50;2.30;;;47.90;35.90;;;;;;942423;149;26273;-72
2023/08/20 09:43:41;;;;;;;3.33;3.02;;;47.90;36.20;;;;;;936761;149;26372;-73
2023/08/20 09:46:07;;;;;;;3.35;2.50;;;47.90;36.10;;;;;;927269;150;26261;-74
2023/08/20 09:48:37;;;;;;;2.75;2.35;;;47.80;35.90;;;;;;949794;147;26271;-73
2023/08/20 09:51:01;;;;;;;2.85;2.55;;;47.80;35.90;;;;;;949320;147;26730;-73
2023/08/20 09:53:33;;;;;;;3.65;2.80;;;47.60;35.60;;;;;;949941;147;26226;-74
2023/08/20 09:56:00;;;;;;;4.00;2.65;;;47.60;35.50;;;;;;950926;147;26224;-75
2023/08/20 09:58:26;;;;;;;2.90;2.70;;;47.30;35.40;;;;;;949426;147;26260;-73
2023/08/20 10:00:53;;;;;;;4.03;2.90;;;47.10;35.60;;;;;;950790;147;26166;-72
2023/08/20 10:03:19;;;;;;;3.72;2.60;;;46.80;35.60;;;;;;950674;147;26229;-75
2023/08/20 10:05:46;;;;;;;2.80;2.60;;;46.60;35.60;;;;;;950699;147;26266;-74
2023/08/20 10:08:13;;;;;;;2.85;2.65;;;46.30;35.20;;;;;;951033;148;26289;-73
2023/08/20 10:10:39;;;;;;;4.85;2.87;;;46.00;35.30;;;;;;950319;147;26248;-74
2023/08/20 10:13:06;;;;;;;3.12;2.92;;;45.60;35.40;;;;;;950879;147;26210;-74
2023/08/20 10:15:36;;;;;;;3.02;2.83;;;45.10;35.60;;;;;;950730;148;26327;-72
2023/08/20 10:17:59;;;;;;;3.20;2.90;;;44.60;35.90;;;;;;950993;147;26166;-76
2023/08/20 10:20:25;;;;;;;3.55;3.25;;;44.30;36.50;;;;;;951192;147;26253;-76
2023/08/20 10:22:52;;;;;;;3.85;3.25;;;43.90;36.60;;;;;;950529;147;26230;-73
2023/08/20 10:25:24;;;;;;;3.52;3.05;;;43.60;36.70;;;;;;950600;147;26330;-74
2023/08/20 10:27:51;;;;;;;3.35;3.00;;;43.30;36.60;;;;;;951039;147;26167;-75
2023/08/20 10:30:18;;;;;;;3.22;2.92;;;42.90;36.60;;;;;;950477;147;26262;-73
2023/08/20 10:32:47;;;;;;;3.02;2.83;;;42.60;37.00;;;;;;949235;147;26210;-78
2023/08/20 10:35:14;;;;;;;3.58;3.27;;;42.20;37.50;;;;;;949308;147;26244;-78
2023/08/20 10:37:40;;;;;;;3.65;3.35;;;41.90;37.60;;;;;;932830;150;26258;-77
2023/08/20 10:40:07;;;;;;;3.10;2.90;;;41.60;38.00;;;;;;929640;150;26362;-78
2023/08/20 10:42:34;;;;;;;3.40;3.20;;;41.30;38.30;;;;;;950831;147;26355;-78
2023/08/20 10:45:00;;;;;;;3.58;2.83;;;40.90;38.60;;;;;;949970;147;26225;-78
2023/08/20 10:47:27;;;;;;;3.92;3.62;;;40.70;39.60;;;;;;949164;147;26198;-78
2023/08/20 10:49:53;;;;;;;4.00;3.65;;;40.40;39.20;;;;;;948355;147;26163;-76
2023/08/20 10:52:20;;;;;;;4.78;3.27;;;40.10;39.50;;;;;;951376;147;26268;-79
2023/08/20 10:54:46;;;;;;;3.02;2.75;;;39.80;39.70;;;;;;950930;147;26322;-77
2023/08/20 10:57:13;;;;;;;3.42;3.12;;;39.50;40.10;;;;;;950761;147;26166;-78
2023/08/20 10:59:40;;;;;;;4.03;3.42;;;39.30;40.30;;;;;;950558;147;26241;-76
2023/08/20 11:02:07;;;;;;;3.25;2.92;;;39.10;40.80;;;;;;951278;147;26269;-75
2023/08/20 11:04:33;;;;;;;5.33;3.20;;;38.90;41.10;;;;;;948544;147;26256;-78
2023/08/20 11:06:59;;;;;;;3.40;3.10;;;38.70;41.40;;;;;;950765;147;26190;-77
2023/08/20 11:09:26;;;;;;;3.47;3.00;;;38.60;41.30;;;;;;956820;146;26266;-77
2023/08/20 11:11:53;;;;;;;3.17;2.98;;;38.40;41.30;;;;;;963119;145;26324;-76
2023/08/20 11:14:19;;;;;;;3.25;3.02;;;38.30;41.20;;;;;;964232;145;26356;-77
2023/08/20 11:16:46;;;;;;;3.00;2.80;;;38.20;41.30;;;;;;963293;145;26251;-76
2023/08/20 11:19:12;;;;;;;3.22;2.75;;;38.00;41.20;;;;;;963929;145;26332;-78
2023/08/20 11:21:39;;;;;;;3.75;2.62;;;37.90;41.40;;;;;;963044;145;26191;-77
2023/08/20 11:24:06;;;;;;;3.17;2.87;;;37.80;41.70;;;;;;962839;145;26713;-78
2023/08/20 11:26:32;;;;;;;3.30;3.00;;;37.70;42.00;;;;;;963314;146;26341;-77
2023/08/20 11:28:59;;;;;;;2.98;2.67;;;37.70;42.00;;;;;;963068;146;26227;-78
2023/08/20 11:31:25;;;;;;;2.95;2.72;;;37.60;42.20;;;;;;963162;146;27420;-76
2023/08/20 11:33:52;;;;;;;2.95;2.72;;;37.50;42.10;;;;;;964158;146;26235;-76
2023/08/20 11:36:18;;;;;;;3.40;3.10;;;37.50;42.60;;;;;;964035;145;26254;-78
2023/08/20 11:38:52;;;;;;;2.75;2.55;;;37.40;42.60;;;;;;962672;146;26207;-77
2023/08/20 11:41:17;;;;;;;4.42;2.72;;;37.40;42.40;;;;;;963761;146;26183;-72
2023/08/20 11:43:45;;;;;;;3.25;3.00;;;37.30;42.30;;;;;;963655;146;26227;-76
2023/08/20 11:46:15;;;;;;;4.70;3.17;;;37.30;42.60;;;;;;964172;146;27355;-72
2023/08/20 11:49:05;;;;;;;3.83;3.12;;;37.20;43.00;;;;;;964052;146;26325;-75
2023/08/20 11:51:47;;;;;;;3.72;3.42;;;37.20;43.40;;;;;;963600;146;26356;-76
2023/08/20 11:54:14;;;;;;;3.60;3.30;;;37.10;43.10;;;;;;964456;146;26160;-76
2023/08/20 11:56:43;;;;;;;3.37;2.83;;;37.10;43.40;;;;;;963390;146;27305;-74
2023/08/20 11:59:10;;;;;;;2.58;2.37;;;37.00;43.30;;;;;;960205;146;27325;-72
2023/08/20 12:01:36;;;;;;;3.00;2.80;;;37.00;43.20;;;;;;963621;146;26323;-74
2023/08/20 12:04:06;;;;;;;3.22;3.02;;;36.90;42.90;;;;;;964100;146;26255;-73
2023/08/20 12:06:32;;;;;;;3.00;2.70;;;36.90;42.60;;;;;;941667;149;27361;-73
2023/08/20 12:08:59;;;;;;;2.92;2.60;;;36.80;42.40;;;;;;963876;146;27356;-73
2023/08/20 12:11:28;;;;;;;2.72;2.52;;;36.70;42.40;;;;;;964181;146;26340;-72
2023/08/20 12:13:55;;;;;;;2.70;2.50;;;36.60;42.30;;;;;;963431;146;27324;-73
2023/08/20 12:16:21;;;;;;;3.40;2.98;;;36.60;42.50;;;;;;963551;146;26223;-74
2023/08/20 12:18:48;;;;;;;3.55;2.98;;;36.50;42.80;;;;;;962802;145;26160;-73
2023/08/20 12:21:15;;;;;;;3.25;3.05;;;36.50;43.10;;;;;;964311;146;26325;-75
2023/08/20 12:23:41;;;;;;;3.42;3.12;;;36.50;43.20;;;;;;963875;145;27355;-75
2023/08/20 12:26:08;;;;;;;3.90;3.20;;;36.40;43.00;;;;;;963995;146;26224;-72
2023/08/20 12:28:34;;;;;;;2.95;2.75;;;36.40;43.60;;;;;;964159;145;27337;-72
2023/08/20 12:31:02;;;;;;;3.10;2.90;;;36.40;43.40;;;;;;963984;145;26336;-75
2023/08/20 12:33:28;;;;;;;3.20;2.90;;;36.40;43.40;;;;;;963455;146;27340;-73
2023/08/20 12:35:54;;;;;;;4.67;2.80;;;36.40;43.40;;;;;;964096;146;26232;-72
2023/08/20 12:38:21;;;;;;;4.30;2.72;;;36.40;43.20;;;;;;964208;146;27324;-73
2023/08/20 12:40:47;;;;;;;4.22;3.02;;;36.30;43.60;;;;;;964245;146;26719;-72
2023/08/20 12:43:14;;;;;;;3.30;3.00;;;36.40;43.90;;;;;;964003;146;27486;-75
2023/08/20 12:45:41;;;;;;;3.70;3.33;;;36.40;44.10;;;;;;963980;146;26390;-74
2023/08/20 12:48:10;;;;;;;3.20;3.00;;;36.40;44.20;;;;;;964164;146;27321;-73